Time;durP1;ratioP1;P1;durP2;ratioP2;P2;SDS_P1;SDS_P2;PMS_P1;PMS_P2;Temp;Humidity;BMP_temperature;BMP_pressure;BME280_temperature;BME280_humidity;BME280_pressure;Samples;Min_cycle;Max_cycle;Signal;HPM_P1;HPM_P2
2020/12/01 00:01:07;;;;;;;5.13;3.42;;;1.20;93.20;;;;;;4119643;28;20054;-86
2020/12/01 00:03:08;;;;;;;7.45;3.15;;;1.20;92.90;;;;;;4135042;28;20058;-86
2020/12/01 00:05:11;;;;;;;4.72;4.40;;;1.10;93.60;;;;;;4121148;28;20054;-86
2020/12/01 00:07:13;;;;;;;2.97;2.78;;;1.10;93.40;;;;;;4117041;28;20046;-86
2020/12/01 00:09:14;;;;;;;8.70;4.32;;;1.10;93.60;;;;;;4134466;28;20053;-86
2020/12/01 00:11:16;;;;;;;6.80;3.85;;;1.10;93.20;;;;;;4121068;28;20057;-86
2020/12/01 00:13:17;;;;;;;5.78;3.03;;;1.10;93.40;;;;;;4117570;28;20473;-86
2020/12/01 00:15:20;;;;;;;3.85;2.72;;;1.10;93.10;;;;;;4133042;28;20435;-86
2020/12/01 00:17:21;;;;;;;4.65;2.15;;;1.10;93.10;;;;;;4169629;28;20057;-86
2020/12/01 00:19:23;;;;;;;4.40;2.92;;;1.20;93.20;;;;;;4143507;28;20398;-86
2020/12/01 00:21:24;;;;;;;5.65;3.90;;;1.20;93.10;;;;;;4148095;28;20064;-85
2020/12/01 00:23:27;;;;;;;3.28;2.97;;;1.10;93.60;;;;;;4153609;28;20572;-86
2020/12/01 00:25:28;;;;;;;7.50;3.08;;;1.00;94.00;;;;;;4136654;28;20050;-86
2020/12/01 00:27:30;;;;;;;9.52;4.43;;;1.10;93.90;;;;;;4131743;28;20647;-86
2020/12/01 00:29:31;;;;;;;3.40;2.33;;;1.00;94.10;;;;;;4135435;28;20058;-86
2020/12/01 00:31:42;;;;;;;7.82;2.95;;;1.00;94.30;;;;;;4134089;28;20517;-86
2020/12/01 00:33:44;;;;;;;6.65;3.15;;;1.00;94.10;;;;;;4116494;28;20086;-86
2020/12/01 00:35:46;;;;;;;8.48;3.58;;;1.00;93.90;;;;;;4152891;28;20575;-86
2020/12/01 00:37:47;;;;;;;3.22;2.92;;;1.10;93.50;;;;;;4133711;28;20053;-86
2020/12/01 00:39:48;;;;;;;5.88;4.30;;;1.10;93.90;;;;;;4131009;28;20424;-86
2020/12/01 00:41:50;;;;;;;1.30;1.20;;;1.10;94.20;;;;;;4136939;28;20056;-87
2020/12/01 00:43:52;;;;;;;4.70;4.25;;;1.10;94.00;;;;;;4135197;28;20499;-86
2020/12/01 00:45:53;;;;;;;5.68;3.08;;;1.10;94.10;;;;;;4131317;28;20411;-86
2020/12/01 00:47:54;;;;;;;7.13;3.15;;;1.00;94.10;;;;;;4120442;28;20062;-86
2020/12/01 00:49:55;;;;;;;13.43;6.95;;;1.00;94.10;;;;;;4136245;28;20626;-86
2020/12/01 00:51:58;;;;;;;9.25;3.33;;;1.00;94.10;;;;;;4133443;28;20054;-85
2020/12/01 00:53:59;;;;;;;4.60;4.20;;;0.90;94.70;;;;;;4136066;28;20117;-86
2020/12/01 00:56:00;;;;;;;10.05;3.47;;;1.00;94.50;;;;;;4133684;28;20577;-86
2020/12/01 00:58:02;;;;;;;3.53;2.75;;;1.00;94.20;;;;;;4116721;28;20437;-86
2020/12/01 01:00:08;;;;;;;3.58;3.13;;;1.00;94.00;;;;;;4134976;28;20108;-86
2020/12/01 01:02:09;;;;;;;3.95;2.92;;;1.10;94.10;;;;;;4136492;28;20065;-86
2020/12/01 01:04:10;;;;;;;5.50;4.75;;;1.10;93.90;;;;;;4116086;28;20057;-86
2020/12/01 01:06:12;;;;;;;9.80;3.65;;;1.10;93.70;;;;;;4117387;28;20051;-86
2020/12/01 01:08:13;;;;;;;6.70;3.20;;;1.20;94.00;;;;;;4119857;28;20049;-86
2020/12/01 01:10:23;;;;;;;9.68;3.60;;;1.20;93.90;;;;;;4132889;28;20425;-86
2020/12/01 01:12:24;;;;;;;7.85;3.20;;;1.20;93.80;;;;;;4149145;28;20058;-85
2020/12/01 01:14:26;;;;;;;4.05;1.77;;;1.20;93.70;;;;;;4125952;28;20479;-86
2020/12/01 01:16:27;;;;;;;5.18;3.55;;;1.20;93.70;;;;;;4141824;28;20057;-86
2020/12/01 01:18:29;;;;;;;3.60;2.47;;;1.20;93.60;;;;;;4148301;28;20114;-87
2020/12/01 01:20:30;;;;;;;5.32;3.30;;;1.20;94.00;;;;;;4152324;28;20148;-87
2020/12/01 01:22:31;;;;;;;2.80;2.60;;;1.20;93.70;;;;;;4152666;28;20057;-86
2020/12/01 01:24:32;;;;;;;7.05;3.35;;;1.20;94.00;;;;;;4101868;28;20451;-86
2020/12/01 01:26:34;;;;;;;8.82;3.40;;;1.10;94.00;;;;;;4138119;28;20058;-86
2020/12/01 01:28:36;;;;;;;5.50;2.33;;;1.10;94.00;;;;;;4132662;28;20052;-86
2020/12/01 01:30:39;;;;;;;4.20;3.90;;;1.00;94.30;;;;;;4131070;28;20059;-86
2020/12/01 01:32:41;;;;;;;7.93;3.15;;;0.90;94.60;;;;;;4120146;28;20062;-86
2020/12/01 01:34:46;;;;;;;3.70;3.40;;;0.90;94.50;;;;;;4136375;28;20050;-86
2020/12/01 01:36:47;;;;;;;2.70;2.50;;;0.80;94.80;;;;;;4131936;28;20061;-86
2020/12/01 01:38:49;;;;;;;5.07;4.25;;;0.80;94.90;;;;;;4135831;28;20129;-86
2020/12/01 01:40:55;;;;;;;7.38;4.90;;;0.80;95.00;;;;;;4135921;28;20054;-86
2020/12/01 01:42:56;;;;;;;3.38;3.08;;;0.90;95.00;;;;;;4113930;28;20051;-86
2020/12/01 01:44:57;;;;;;;9.43;3.65;;;0.90;94.80;;;;;;4118730;28;20055;-86
2020/12/01 01:47:19;;;;;;;6.65;2.65;;;0.90;94.90;;;;;;4133877;28;20580;-87
2020/12/01 01:49:26;;;;;;;6.40;5.68;;;0.90;95.30;;;;;;4133065;28;20148;-86
2020/12/01 01:51:27;;;;;;;7.93;4.15;;;0.90;95.30;;;;;;4145570;28;20054;-86
2020/12/01 01:53:29;;;;;;;2.80;2.50;;;0.80;95.60;;;;;;4135471;28;20058;-86
2020/12/01 01:55:31;;;;;;;5.63;2.60;;;0.80;95.10;;;;;;4117294;28;20061;-86
2020/12/01 01:57:32;;;;;;;13.95;5.72;;;0.90;94.90;;;;;;4130160;28;20062;-86
2020/12/01 01:59:33;;;;;;;3.20;2.80;;;0.90;95.00;;;;;;4135539;28;20064;-86
2020/12/01 02:01:35;;;;;;;16.25;3.00;;;0.90;95.00;;;;;;4116847;28;20058;-86
2020/12/01 02:03:38;;;;;;;2.65;2.45;;;1.00;95.40;;;;;;4175124;28;20054;-86
2020/12/01 02:05:40;;;;;;;3.13;2.70;;;1.00;95.00;;;;;;4136014;28;20062;-86
2020/12/01 02:07:41;;;;;;;4.68;3.28;;;1.00;94.70;;;;;;4122573;28;20046;-86
2020/12/01 02:09:53;;;;;;;2.97;1.88;;;1.00;94.70;;;;;;4134862;28;20083;-86
2020/12/01 02:11:56;;;;;;;2.88;2.67;;;1.00;95.00;;;;;;4157893;28;20061;-86
2020/12/01 02:14:03;;;;;;;4.03;3.35;;;0.90;95.00;;;;;;4138725;28;20140;-86
2020/12/01 02:16:04;;;;;;;3.45;2.58;;;1.00;95.00;;;;;;4140320;28;20065;-86
2020/12/01 02:18:06;;;;;;;5.78;2.33;;;0.90;95.10;;;;;;4131882;28;20054;-86
2020/12/01 02:20:09;;;;;;;4.95;4.10;;;0.90;95.20;;;;;;4150187;28;20540;-86
2020/12/01 02:22:15;;;;;;;2.67;2.50;;;0.90;95.40;;;;;;4141117;28;20073;-86
2020/12/01 02:24:21;;;;;;;3.53;3.33;;;1.00;95.00;;;;;;4131183;28;20073;-86
2020/12/01 02:26:23;;;;;;;11.20;4.68;;;1.00;94.60;;;;;;4148130;28;20058;-86
2020/12/01 02:28:24;;;;;;;8.23;3.03;;;1.00;94.40;;;;;;4157607;28;20501;-86
2020/12/01 02:30:25;;;;;;;3.28;2.97;;;1.10;94.70;;;;;;4177796;28;20063;-86
2020/12/01 02:32:27;;;;;;;3.88;2.53;;;1.00;95.20;;;;;;4140075;28;20133;-86
2020/12/01 02:34:38;;;;;;;6.07;5.47;;;1.00;95.50;;;;;;4155909;28;20134;-86
2020/12/01 02:36:39;;;;;;;2.55;1.27;;;1.00;95.60;;;;;;4160228;28;20089;-86
2020/12/01 02:38:42;;;;;;;4.72;3.40;;;1.00;95.60;;;;;;4135486;28;20061;-86
2020/12/01 02:40:44;;;;;;;4.72;3.42;;;1.00;95.50;;;;;;4134995;28;20502;-86
2020/12/01 02:42:45;;;;;;;9.80;4.88;;;1.00;95.30;;;;;;4130858;28;20081;-86
2020/12/01 02:44:46;;;;;;;4.00;2.88;;;1.10;95.30;;;;;;4119050;28;20523;-86
2020/12/01 02:46:48;;;;;;;2.42;2.22;;;1.20;95.50;;;;;;4127003;28;20053;-86
2020/12/01 02:48:49;;;;;;;3.28;2.97;;;1.20;95.50;;;;;;4143241;28;20054;-86
2020/12/01 02:50:50;;;;;;;3.42;2.95;;;1.20;95.70;;;;;;4118670;28;20150;-86
2020/12/01 02:52:51;;;;;;;4.80;4.40;;;1.20;95.30;;;;;;4119125;28;20574;-86
2020/12/01 02:54:53;;;;;;;6.88;2.80;;;1.30;95.60;;;;;;4114175;28;20054;-86
2020/12/01 02:56:54;;;;;;;7.32;2.25;;;1.30;95.10;;;;;;4134418;28;20056;-86
2020/12/01 02:58:55;;;;;;;3.47;3.13;;;1.30;95.30;;;;;;4118464;28;20063;-86
2020/12/01 03:00:57;;;;;;;2.08;1.70;;;1.30;95.50;;;;;;4113677;28;20133;-86
2020/12/01 03:02:58;;;;;;;3.03;2.70;;;1.40;95.30;;;;;;4160812;28;20136;-86
2020/12/01 03:04:59;;;;;;;3.03;1.98;;;1.40;95.40;;;;;;4136022;28;20054;-86
2020/12/01 03:07:00;;;;;;;6.28;3.17;;;1.40;95.10;;;;;;4130641;28;20054;-86
2020/12/01 03:09:04;;;;;;;7.53;2.97;;;1.50;95.10;;;;;;4144924;28;20064;-87
2020/12/01 03:11:06;;;;;;;3.80;2.75;;;1.40;95.80;;;;;;4119878;28;20054;-86
2020/12/01 03:13:08;;;;;;;2.95;1.95;;;1.50;95.70;;;;;;4114624;28;20073;-86
2020/12/01 03:15:12;;;;;;;4.35;2.35;;;1.40;95.90;;;;;;4164348;28;20439;-86
2020/12/01 03:17:14;;;;;;;5.57;1.88;;;1.50;96.20;;;;;;4142014;28;20064;-86
2020/12/01 03:19:15;;;;;;;7.13;3.95;;;1.40;96.20;;;;;;4146634;28;20042;-86
2020/12/01 03:21:16;;;;;;;3.92;2.80;;;1.50;96.10;;;;;;4150661;28;20536;-86
2020/12/01 03:23:18;;;;;;;5.35;3.83;;;1.40;96.20;;;;;;4155306;28;20058;-85
2020/12/01 03:25:19;;;;;;;2.40;2.20;;;1.40;96.30;;;;;;4159751;28;20394;-86
2020/12/01 03:27:20;;;;;;;7.40;4.15;;;1.40;96.80;;;;;;4117944;28;20051;-86
2020/12/01 03:29:22;;;;;;;3.80;3.50;;;1.40;96.70;;;;;;4137135;28;20050;-86
2020/12/01 03:31:24;;;;;;;2.80;2.53;;;1.40;96.80;;;;;;4138350;28;20038;-86
2020/12/01 03:33:25;;;;;;;4.97;3.50;;;1.50;96.60;;;;;;4148758;28;20064;-86
2020/12/01 03:35:27;;;;;;;3.80;3.50;;;1.50;96.50;;;;;;4164417;28;20051;-86
2020/12/01 03:37:29;;;;;;;10.50;3.35;;;1.50;96.30;;;;;;4143974;28;20057;-86
2020/12/01 03:39:30;;;;;;;5.80;3.05;;;1.50;96.40;;;;;;4117503;28;20053;-86
2020/12/01 03:41:31;;;;;;;3.40;3.10;;;1.50;96.30;;;;;;4153206;28;20054;-86
2020/12/01 03:43:33;;;;;;;9.20;4.75;;;1.50;96.80;;;;;;4159615;28;20049;-86
2020/12/01 03:45:36;;;;;;;2.60;2.45;;;1.50;97.10;;;;;;4161816;28;20532;-86
2020/12/01 03:47:37;;;;;;;3.63;2.72;;;1.40;97.50;;;;;;4120599;28;20057;-86
2020/12/01 03:49:38;;;;;;;7.88;3.97;;;1.40;97.30;;;;;;4144248;28;20129;-87
2020/12/01 03:51:40;;;;;;;2.75;2.55;;;1.50;97.00;;;;;;4145141;28;20069;-86
2020/12/01 03:53:42;;;;;;;2.78;1.63;;;1.50;96.90;;;;;;4153644;28;20046;-86
2020/12/01 03:55:43;;;;;;;9.77;3.25;;;1.40;96.90;;;;;;4137115;28;20046;-87
2020/12/01 03:57:44;;;;;;;5.28;3.80;;;1.40;96.90;;;;;;4117033;28;20051;-86
2020/12/01 03:59:46;;;;;;;4.53;3.45;;;1.50;96.90;;;;;;4153917;28;20132;-86
2020/12/01 04:01:47;;;;;;;8.07;3.45;;;1.50;96.90;;;;;;4133928;28;20051;-86
2020/12/01 04:03:48;;;;;;;3.20;2.75;;;1.50;96.90;;;;;;4117374;28;20055;-86
2020/12/01 04:05:49;;;;;;;2.08;1.90;;;1.50;96.30;;;;;;4137542;28;20062;-86
2020/12/01 04:07:53;;;;;;;3.85;2.80;;;1.60;96.30;;;;;;4137251;28;20510;-86
2020/12/01 04:09:55;;;;;;;2.35;1.60;;;1.50;96.80;;;;;;4115837;28;20079;-86
2020/12/01 04:11:56;;;;;;;8.00;2.50;;;1.50;96.40;;;;;;4136512;28;20145;-86
2020/12/01 04:13:57;;;;;;;3.55;2.55;;;1.50;96.60;;;;;;4121027;28;20055;-86
2020/12/01 04:15:58;;;;;;;6.13;3.97;;;1.50;96.50;;;;;;4118836;28;20055;-86
2020/12/01 04:18:00;;;;;;;4.43;3.22;;;1.50;96.80;;;;;;4136047;28;20062;-86
2020/12/01 04:20:02;;;;;;;5.43;2.78;;;1.50;96.60;;;;;;4136907;28;20058;-86
2020/12/01 04:22:03;;;;;;;3.47;2.20;;;1.50;96.80;;;;;;4133271;28;20054;-86
2020/12/01 04:24:04;;;;;;;3.42;2.65;;;1.50;96.90;;;;;;4135468;28;20076;-86
2020/12/01 04:26:06;;;;;;;4.93;2.47;;;1.50;96.60;;;;;;4120700;28;20511;-86
2020/12/01 04:28:07;;;;;;;1.88;1.50;;;1.60;96.00;;;;;;4117309;28;20061;-86
2020/12/01 04:30:08;;;;;;;6.88;3.92;;;1.60;95.80;;;;;;4134530;28;20054;-87
2020/12/01 04:32:10;;;;;;;6.35;2.53;;;1.60;95.70;;;;;;4121215;28;20418;-86
2020/12/01 04:34:11;;;;;;;14.52;4.50;;;1.60;95.70;;;;;;4119930;28;20054;-86
2020/12/01 04:36:12;;;;;;;2.88;1.77;;;1.70;95.70;;;;;;4150125;28;20100;-86
2020/12/01 04:38:14;;;;;;;4.00;2.17;;;1.60;96.20;;;;;;4151511;28;20057;-86
2020/12/01 04:40:17;;;;;;;4.50;2.47;;;1.60;96.20;;;;;;4151112;28;20049;-86
2020/12/01 04:42:19;;;;;;;7.35;2.47;;;1.70;96.10;;;;;;4116570;28;20066;-87
2020/12/01 04:44:29;;;;;;;3.72;2.60;;;1.70;95.80;;;;;;4152956;28;20062;-86
2020/12/01 04:46:33;;;;;;;2.80;2.40;;;1.70;96.20;;;;;;4153336;28;20116;-86
2020/12/01 04:48:58;;;;;;;2.10;1.85;;;1.70;96.10;;;;;;4134255;28;20054;-86
2020/12/01 04:51:03;;;;;;;3.85;1.52;;;1.70;95.70;;;;;;4146412;28;20108;-86
2020/12/01 04:53:25;;;;;;;2.42;1.70;;;1.70;96.00;;;;;;4136676;28;20057;-86
2020/12/01 04:55:53;;;;;;;3.13;1.75;;;1.60;96.00;;;;;;4134081;28;20050;-86
2020/12/01 04:58:27;;;;;;;2.03;1.85;;;1.60;95.90;;;;;;4143927;28;20083;-86
2020/12/01 05:00:57;;;;;;;9.70;2.85;;;1.60;96.30;;;;;;4133125;28;20154;-86
2020/12/01 05:03:09;;;;;;;8.80;3.40;;;1.60;96.30;;;;;;4179244;28;20092;-85
2020/12/01 05:06:09;;;;;;;5.35;0.98;;;1.60;96.00;;;;;;4138068;28;20061;-86
2020/12/01 05:08:28;;;;;;;1.92;1.83;;;1.60;96.30;;;;;;4150155;28;20142;-85
2020/12/01 05:10:30;;;;;;;2.35;2.15;;;1.70;96.00;;;;;;4148253;28;20056;-87
2020/12/01 05:12:41;;;;;;;2.80;2.50;;;1.70;96.30;;;;;;4162319;28;20049;-86
2020/12/01 05:15:18;;;;;;;2.78;1.88;;;1.60;96.90;;;;;;4121196;28;20047;-86
2020/12/01 05:18:12;;;;;;;1.40;0.85;;;1.60;97.10;;;;;;4162313;28;20050;-86
2020/12/01 05:20:14;;;;;;;5.55;2.63;;;1.50;97.50;;;;;;4151566;28;20045;-86
2020/12/01 05:22:16;;;;;;;2.88;2.03;;;1.60;96.80;;;;;;4099291;28;20055;-86
2020/12/01 05:24:17;;;;;;;3.22;2.53;;;1.60;97.20;;;;;;4146699;28;20498;-87
2020/12/01 05:26:21;;;;;;;8.38;2.70;;;1.60;96.30;;;;;;4135454;28;20054;-87
2020/12/01 05:28:22;;;;;;;2.28;2.00;;;1.60;96.60;;;;;;4112077;28;20497;-86
2020/12/01 05:30:24;;;;;;;3.55;3.22;;;1.60;96.70;;;;;;4115458;28;20050;-87
2020/12/01 05:32:49;;;;;;;4.88;1.85;;;1.50;97.00;;;;;;4135298;28;20057;-86
2020/12/01 05:34:50;;;;;;;5.07;1.83;;;1.50;97.10;;;;;;4116313;28;20132;-87
2020/12/01 05:36:51;;;;;;;4.72;2.85;;;1.50;97.30;;;;;;4098830;28;20154;-86
2020/12/01 05:39:17;;;;;;;9.85;3.22;;;1.50;97.20;;;;;;4127050;28;20054;-86
2020/12/01 05:41:24;;;;;;;4.68;3.20;;;1.50;97.30;;;;;;4114474;28;20129;-86
2020/12/01 05:43:35;;;;;;;5.90;2.17;;;1.50;97.00;;;;;;4119489;28;20064;-87
2020/12/01 05:45:37;;;;;;;7.97;4.70;;;1.50;97.40;;;;;;4083459;29;20065;-88
2020/12/01 05:47:41;;;;;;;1.35;1.30;;;1.50;97.40;;;;;;4119694;28;20050;-87
2020/12/01 05:49:49;;;;;;;4.75;3.53;;;1.60;96.80;;;;;;4119257;28;20051;-87
2020/12/01 05:52:31;;;;;;;4.30;2.63;;;1.60;96.70;;;;;;4146014;28;20081;-86
2020/12/01 05:54:43;;;;;;;3.30;2.65;;;1.60;96.60;;;;;;4069351;29;20555;-87
2020/12/01 05:56:49;;;;;;;4.07;2.72;;;1.50;96.80;;;;;;4103971;28;20130;-87
2020/12/01 05:59:06;;;;;;;3.28;2.97;;;1.60;96.80;;;;;;4090988;28;20047;-87
2020/12/01 06:01:08;;;;;;;4.38;3.95;;;1.60;96.90;;;;;;4110015;28;20062;-87
2020/12/01 06:03:27;;;;;;;2.85;1.58;;;1.70;96.60;;;;;;4084981;29;20190;-87
2020/12/01 06:05:29;;;;;;;2.65;1.58;;;1.70;96.80;;;;;;4103074;28;20081;-86
2020/12/01 06:07:30;;;;;;;3.75;2.05;;;1.80;96.40;;;;;;4108808;28;20418;-87
2020/12/01 06:09:47;;;;;;;6.45;2.47;;;1.80;96.60;;;;;;4110903;28;20069;-88
2020/12/01 06:11:52;;;;;;;4.15;2.75;;;1.80;96.70;;;;;;4106943;28;20447;-86
2020/12/01 06:14:11;;;;;;;3.13;1.92;;;1.80;96.50;;;;;;4074295;29;20052;-86
2020/12/01 06:16:26;;;;;;;5.00;3.28;;;1.80;96.90;;;;;;4100425;28;20498;-86
2020/12/01 06:18:35;;;;;;;;;;;1.80;96.80;;;;;;4098684;28;20063;-87
2020/12/01 06:20:44;;;;;;;1.77;1.67;;;1.80;96.50;;;;;;4119223;28;19921;-86
2020/12/01 06:23:06;;;;;;;1.63;1.52;;;1.80;96.60;;;;;;4087125;29;20052;-87
2020/12/01 06:25:32;;;;;;;4.13;2.05;;;1.80;96.70;;;;;;4105290;28;20101;-87
2020/12/01 06:27:36;;;;;;;;;;;1.80;96.90;;;;;;4082951;29;20051;-87
2020/12/01 06:29:43;;;;;;;5.05;2.63;;;1.90;96.80;;;;;;4150956;28;20024;-87
2020/12/01 06:32:18;;;;;;;3.28;2.33;;;1.80;96.80;;;;;;4149104;28;20053;-87
2020/12/01 06:34:43;;;;;;;3.35;3.05;;;1.80;97.10;;;;;;4149930;28;20048;-87
2020/12/01 06:37:06;;;;;;;3.05;2.85;;;1.80;97.20;;;;;;4131148;28;20081;-87
2020/12/01 06:39:16;;;;;;;4.03;2.75;;;1.80;97.20;;;;;;4176294;28;20040;-86
2020/12/01 06:41:20;;;;;;;8.38;3.38;;;1.80;97.40;;;;;;4141299;28;20046;-87
2020/12/01 06:43:51;;;;;;;4.97;1.10;;;1.80;97.20;;;;;;4133610;28;20552;-87
2020/12/01 06:45:55;;;;;;;5.93;3.10;;;1.90;97.40;;;;;;4158440;28;20073;-87
2020/12/01 06:48:04;;;;;;;1.77;1.52;;;1.90;98.20;;;;;;4118630;28;20078;-87
2020/12/01 06:50:06;;;;;;;8.32;3.53;;;1.80;98.00;;;;;;4118724;28;20050;-87
2020/12/01 06:52:12;;;;;;;5.65;2.00;;;1.80;98.40;;;;;;4139817;28;20060;-87
2020/12/01 06:54:14;;;;;;;2.75;2.13;;;1.80;98.40;;;;;;4148400;28;20064;-87
2020/12/01 06:56:17;;;;;;;4.30;2.45;;;1.80;98.50;;;;;;4118055;28;20490;-88
2020/12/01 06:58:36;;;;;;;4.93;1.50;;;1.80;98.50;;;;;;4134404;28;20052;-86
2020/12/01 07:00:43;;;;;;;3.05;2.80;;;1.80;98.40;;;;;;4132150;28;20597;-88
2020/12/01 07:02:44;;;;;;;3.05;2.13;;;1.90;98.20;;;;;;4146547;28;20060;-88
2020/12/01 07:04:45;;;;;;;3.25;2.00;;;1.90;97.80;;;;;;4134790;28;20050;-87
2020/12/01 07:07:14;;;;;;;5.88;2.60;;;1.90;98.20;;;;;;4114738;28;20051;-87
2020/12/01 07:09:31;;;;;;;3.83;1.80;;;1.90;97.90;;;;;;4130686;28;20046;-88
2020/12/01 07:11:33;;;;;;;2.15;1.50;;;2.00;97.90;;;;;;4134043;28;20064;-86
2020/12/01 07:13:45;;;;;;;2.35;2.00;;;2.00;99.00;;;;;;4118613;28;20061;-86
2020/12/01 07:15:48;;;;;;;5.43;2.08;;;2.00;98.80;;;;;;4129003;28;20050;-86
2020/12/01 07:18:23;;;;;;;1.67;1.58;;;2.00;98.80;;;;;;4118850;28;20129;-86
2020/12/01 07:20:45;;;;;;;2.42;1.42;;;2.00;98.70;;;;;;4154142;28;20257;-86
2020/12/01 07:23:00;;;;;;;3.33;2.58;;;2.00;98.90;;;;;;4134629;28;20137;-87
2020/12/01 07:25:11;;;;;;;3.47;2.95;;;2.00;98.90;;;;;;4131026;28;20054;-86
2020/12/01 07:27:23;;;;;;;3.70;2.25;;;2.00;99.10;;;;;;4148141;28;20149;-87
2020/12/01 07:29:30;;;;;;;3.63;2.40;;;2.00;99.10;;;;;;4146145;28;20420;-87
2020/12/01 07:31:33;;;;;;;4.45;3.92;;;2.00;99.20;;;;;;4147230;28;20053;-88
2020/12/01 07:33:35;;;;;;;4.45;2.53;;;2.00;99.30;;;;;;4157818;28;20122;-87
2020/12/01 07:35:37;;;;;;;5.22;3.45;;;2.10;98.70;;;;;;4144412;28;20085;-85
2020/12/01 07:37:41;;;;;;;5.10;2.95;;;2.10;98.60;;;;;;4143947;28;20136;-85
2020/12/01 07:39:55;;;;;;;4.65;2.53;;;2.10;98.60;;;;;;4143843;28;20077;-87
2020/12/01 07:41:58;;;;;;;5.22;2.25;;;2.10;98.90;;;;;;4160305;28;20049;-89
2020/12/01 07:44:08;;;;;;;2.20;1.65;;;2.20;98.70;;;;;;4147561;28;20054;-89
2020/12/01 07:46:09;;;;;;;4.20;2.88;;;2.20;99.00;;;;;;4158349;28;20060;-86
2020/12/01 07:48:13;;;;;;;1.33;1.08;;;2.20;98.80;;;;;;4130560;28;20082;-88
2020/12/01 07:50:21;;;;;;;4.50;2.80;;;2.30;98.80;;;;;;4137218;28;20051;-87
2020/12/01 07:52:28;;;;;;;7.22;3.30;;;2.20;98.80;;;;;;4134761;28;20054;-88
2020/12/01 07:54:32;;;;;;;4.05;3.17;;;2.20;98.60;;;;;;4146054;28;20050;-87
2020/12/01 07:56:37;;;;;;;3.15;2.95;;;2.20;98.50;;;;;;4138253;28;20050;-88
2020/12/01 07:58:38;;;;;;;6.25;2.95;;;2.20;98.50;;;;;;4140499;28;20054;-88
2020/12/01 08:00:39;;;;;;;3.70;1.67;;;2.20;98.60;;;;;;4143523;28;20043;-89
2020/12/01 08:02:41;;;;;;;3.13;2.75;;;2.20;98.90;;;;;;4145082;28;20081;-88
2020/12/01 08:04:42;;;;;;;2.70;2.53;;;2.30;99.00;;;;;;4142358;28;20052;-88
2020/12/01 08:06:45;;;;;;;3.05;1.92;;;2.30;99.00;;;;;;4145936;28;20054;-88
2020/12/01 08:08:46;;;;;;;2.60;2.40;;;2.30;99.00;;;;;;4148004;28;20104;-89
2020/12/01 08:10:48;;;;;;;2.58;2.20;;;2.30;99.00;;;;;;4144562;28;20054;-87
2020/12/01 08:12:51;;;;;;;4.97;3.03;;;2.40;98.70;;;;;;4129539;28;20050;-89
2020/12/01 08:14:54;;;;;;;3.05;2.65;;;2.40;98.40;;;;;;4153959;28;20100;-90
2020/12/01 08:17:12;;;;;;;2.40;2.10;;;2.40;98.50;;;;;;4150757;28;20053;-89
2020/12/01 08:19:14;;;;;;;3.28;2.83;;;2.30;98.70;;;;;;4150178;28;20053;-88
2020/12/01 08:21:34;;;;;;;6.18;2.33;;;2.40;98.80;;;;;;4149919;28;20469;-90
2020/12/01 08:23:36;;;;;;;1.67;1.42;;;2.40;98.70;;;;;;4171221;28;20081;-92
2020/12/01 08:25:37;;;;;;;4.97;2.67;;;2.50;98.80;;;;;;4147853;28;20054;-89
2020/12/01 08:27:49;;;;;;;3.38;2.10;;;2.50;98.50;;;;;;4128279;28;20039;-89
2020/12/01 08:29:50;;;;;;;7.78;3.47;;;2.50;99.00;;;;;;4141958;28;20527;-89
2020/12/01 08:32:10;;;;;;;6.65;1.83;;;2.60;98.70;;;;;;4142922;28;20057;-89
2020/12/01 08:34:21;;;;;;;3.17;2.28;;;2.60;98.50;;;;;;4138892;28;20433;-90
2020/12/01 08:36:30;;;;;;;8.82;2.45;;;2.60;98.90;;;;;;4147237;28;20050;-88
2020/12/01 08:38:44;;;;;;;12.70;3.50;;;2.60;98.60;;;;;;4136419;28;20054;-85
2020/12/01 08:40:51;;;;;;;3.38;2.55;;;2.60;98.90;;;;;;4137822;28;20045;-88
2020/12/01 08:42:57;;;;;;;2.33;2.08;;;2.60;98.60;;;;;;4149923;28;20052;-88
2020/12/01 08:45:11;;;;;;;3.35;2.20;;;2.60;98.80;;;;;;4119966;28;20051;-90
2020/12/01 08:47:12;;;;;;;8.20;3.92;;;2.70;98.60;;;;;;4168081;28;20445;-86
2020/12/01 08:49:23;;;;;;;3.88;2.92;;;2.70;98.60;;;;;;4134789;28;20100;-87
2020/12/01 08:51:26;;;;;;;4.32;3.08;;;2.70;99.00;;;;;;4132931;28;20050;-88
2020/12/01 08:53:28;;;;;;;2.03;1.92;;;2.70;99.50;;;;;;4144055;28;20050;-89
2020/12/01 08:55:31;;;;;;;3.20;2.58;;;2.70;99.10;;;;;;4143912;28;20048;-89
2020/12/01 08:57:34;;;;;;;7.20;3.40;;;2.70;98.80;;;;;;4165426;28;20057;-86
2020/12/01 09:00:03;;;;;;;4.20;2.17;;;2.80;98.90;;;;;;4145606;28;20045;-89
2020/12/01 09:02:06;;;;;;;2.88;1.95;;;2.80;99.00;;;;;;4141918;28;20517;-88
2020/12/01 09:04:22;;;;;;;3.30;1.33;;;2.90;99.10;;;;;;4146970;28;20060;-87
2020/12/01 09:06:29;;;;;;;6.20;3.67;;;2.90;99.00;;;;;;4136994;28;20038;-87
2020/12/01 09:08:51;;;;;;;7.68;2.15;;;2.90;98.90;;;;;;4152572;28;20054;-88
2020/12/01 09:11:07;;;;;;;11.48;4.43;;;2.90;98.80;;;;;;4151939;28;20132;-89
2020/12/01 09:13:24;;;;;;;5.18;3.42;;;2.90;98.80;;;;;;4150465;28;20057;-89
2020/12/01 09:15:55;;;;;;;6.47;1.70;;;3.00;98.70;;;;;;4144521;28;20026;-86
2020/12/01 09:22:40;;;;;;;7.80;2.40;;;3.00;98.70;;;;;;4169670;28;19965;-80
2020/12/01 09:24:41;;;;;;;4.57;3.70;;;3.10;98.80;;;;;;4151945;28;20065;-84
2020/12/01 09:26:42;;;;;;;4.40;4.00;;;3.10;98.80;;;;;;4168772;28;20234;-88
2020/12/01 09:28:48;;;;;;;2.63;2.42;;;3.10;98.80;;;;;;4157287;28;20052;-89
2020/12/01 09:30:49;;;;;;;3.42;1.90;;;3.10;99.10;;;;;;4129063;28;20057;-87
2020/12/01 09:32:51;;;;;;;1.58;1.33;;;3.20;99.00;;;;;;4138309;28;20042;-90
2020/12/01 09:34:52;;;;;;;3.10;2.53;;;3.20;99.10;;;;;;4133545;28;20050;-88
2020/12/01 09:36:58;;;;;;;4.53;3.03;;;3.30;98.80;;;;;;4130662;28;20153;-87
2020/12/01 09:38:59;;;;;;;4.15;3.65;;;3.30;98.70;;;;;;4130558;28;20064;-88
2020/12/01 09:41:01;;;;;;;3.17;2.08;;;3.30;98.80;;;;;;4130583;28;20074;-90
2020/12/01 09:45:30;;;;;;;1.77;1.67;;;3.30;99.20;;;;;;4136481;28;20077;-87
2020/12/01 09:49:36;;;;;;;5.72;3.38;;;3.40;99.10;;;;;;4110963;28;20051;-83
2020/12/01 09:51:37;;;;;;;2.70;2.50;;;3.30;99.40;;;;;;4116647;28;20047;-90
2020/12/01 09:53:50;;;;;;;2.10;1.73;;;3.40;99.00;;;;;;4131201;28;20043;-87
2020/12/01 09:56:58;;;;;;;5.70;2.63;;;3.40;99.30;;;;;;4133035;28;20057;-88
2020/12/01 10:03:21;;;;;;;3.92;2.28;;;3.50;99.40;;;;;;4149327;28;20136;-88
2020/12/01 10:17:10;;;;;;;2.80;1.45;;;3.60;99.40;;;;;;4147072;28;20478;-89
2020/12/01 10:35:32;;;;;;;3.38;2.08;;;3.80;99.10;;;;;;4136700;28;20050;-86
2020/12/01 10:37:22;;;;;;;1.90;1.80;;;3.80;98.90;;;;;;4144773;28;20045;-88
2020/12/01 10:39:23;;;;;;;1.85;1.70;;;3.70;99.20;;;;;;4163371;28;20045;-87
2020/12/01 10:41:29;;;;;;;2.58;1.70;;;3.70;99.10;;;;;;4133270;28;20058;-88
2020/12/01 10:43:30;;;;;;;;;;;3.80;99.10;;;;;;4130666;28;20062;-88
2020/12/01 10:45:31;;;;;;;4.50;2.20;;;3.80;99.20;;;;;;4147166;28;19925;-87
2020/12/01 10:47:51;;;;;;;7.25;2.55;;;3.70;99.30;;;;;;4135433;28;20529;-87
2020/12/01 10:49:52;;;;;;;3.00;2.80;;;3.70;99.50;;;;;;4136070;28;20141;-85
2020/12/01 10:51:53;;;;;;;5.03;2.83;;;3.80;99.50;;;;;;4164853;28;20053;-88
2020/12/01 10:53:54;;;;;;;5.72;3.75;;;3.80;99.70;;;;;;4135174;28;20109;-88
2020/12/01 10:55:56;;;;;;;19.50;3.58;;;3.80;99.40;;;;;;4170100;28;20052;-88
2020/12/01 10:57:58;;;;;;;5.65;5.10;;;3.80;99.10;;;;;;4144342;28;20050;-88
2020/12/01 10:59:59;;;;;;;3.90;2.38;;;3.80;99.20;;;;;;4130936;28;20065;-86
2020/12/01 11:02:05;;;;;;;3.72;3.42;;;3.90;99.50;;;;;;4137093;28;20056;-88
2020/12/01 11:04:06;;;;;;;3.58;2.55;;;4.10;99.90;;;;;;4145620;28;20046;-87
2020/12/01 11:06:08;;;;;;;2.45;2.25;;;4.10;99.50;;;;;;4133226;28;20053;-88
2020/12/01 11:08:09;;;;;;;4.20;2.85;;;4.20;99.00;;;;;;4153531;28;20050;-83
2020/12/01 11:10:10;;;;;;;4.57;4.18;;;4.30;98.90;;;;;;4131382;28;20125;-86
2020/12/01 11:12:11;;;;;;;2.75;2.55;;;4.40;99.20;;;;;;4177546;28;20053;-86
2020/12/01 11:14:13;;;;;;;4.47;3.35;;;4.50;98.90;;;;;;4140482;28;20557;-88
2020/12/01 11:16:14;;;;;;;5.63;3.05;;;4.60;98.70;;;;;;4134771;28;21034;-82
2020/12/01 11:18:15;;;;;;;6.63;2.22;;;4.70;99.00;;;;;;4142251;28;20054;-85
2020/12/01 11:20:17;;;;;;;2.10;1.67;;;4.80;98.60;;;;;;4139311;28;20054;-86
2020/12/01 11:22:18;;;;;;;4.05;2.50;;;4.80;98.70;;;;;;4170510;28;20437;-87
2020/12/01 11:24:20;;;;;;;5.68;5.15;;;4.80;98.40;;;;;;4147962;28;20048;-85
2020/12/01 11:26:21;;;;;;;7.03;6.38;;;4.90;98.30;;;;;;4132606;28;20256;-87
2020/12/01 11:28:23;;;;;;;4.10;3.38;;;4.90;98.80;;;;;;4169418;28;20064;-87
2020/12/01 11:30:25;;;;;;;3.22;2.78;;;5.00;98.70;;;;;;4153103;28;20049;-87
2020/12/01 11:32:26;;;;;;;8.60;5.03;;;5.10;98.50;;;;;;4154671;28;20069;-88
2020/12/01 11:34:27;;;;;;;4.03;3.65;;;5.20;98.50;;;;;;4143050;28;20141;-88
2020/12/01 11:36:29;;;;;;;2.30;2.13;;;5.20;98.40;;;;;;4132338;28;20046;-87
2020/12/01 11:38:30;;;;;;;2.67;2.33;;;5.30;98.20;;;;;;4178172;28;20132;-88
2020/12/01 11:40:31;;;;;;;4.00;3.67;;;5.40;98.20;;;;;;4149328;28;20058;-88
2020/12/01 11:42:32;;;;;;;4.90;3.40;;;5.50;98.40;;;;;;4148745;28;20117;-86
2020/12/01 11:44:34;;;;;;;3.95;2.13;;;5.70;98.10;;;;;;4139702;28;20073;-88
2020/12/01 11:46:37;;;;;;;4.78;3.42;;;5.80;97.70;;;;;;4138806;28;20046;-87